Time,TemperatureF,DewpointF,PressureIn,WindDirection,WindDirectionDegrees,WindSpeedMPH,WindSpeedGustMPH,Humidity,HourlyPrecipIn,Conditions,Clouds,dailyrainin,SoftwareType,DateUTC
2013-11-03 10:53:00,50.0,37.0,30.23,SSE,166,0.0,2.0,60,0.00,,,0.04,,2013-11-03 15:53:00,
2013-11-03 11:14:00,51.0,38.0,30.23,South,191,0.0,2.0,62,0.00,,,0.04,,2013-11-03 16:14:00,
2013-11-03 11:23:00,51.0,38.0,30.23,South,191,0.0,2.0,62,0.00,,,0.04,,2013-11-03 16:23:00,
2013-11-03 11:43:00,52.0,36.0,30.23,SSW,201,0.0,0.0,55,0.00,,,0.04,,2013-11-03 16:43:00,
2013-11-03 11:53:00,52.0,36.0,30.23,SSW,201,0.0,0.0,55,0.00,,,0.04,,2013-11-03 16:53:00,
2013-11-03 12:13:00,54.0,37.0,30.23,SSW,212,0.0,4.0,53,0.00,,,0.04,,2013-11-03 17:13:00,
2013-11-03 12:23:00,54.0,37.0,30.23,SSW,212,0.0,4.0,53,0.00,,,0.04,,2013-11-03 17:23:00,
2013-11-03 12:33:00,54.0,37.0,30.23,SSW,212,0.0,4.0,53,0.00,,,0.04,,2013-11-03 17:33:00,
2013-11-03 12:43:00,54.0,37.0,30.23,SSW,212,0.0,4.0,53,0.00,,,0.04,,2013-11-03 17:43:00,
2013-11-03 12:53:00,56.0,37.0,30.21,SSW,207,0.0,3.0,48,0.00,,,0.04,,2013-11-03 17:53:00,
2013-11-03 13:02:00,56.0,37.0,30.21,SSW,207,0.0,3.0,48,0.00,,,0.04,,2013-11-03 18:02:00,
2013-11-03 13:23:00,56.0,36.0,30.20,SW,215,0.0,0.0,47,0.00,,,0.03,,2013-11-03 18:23:00,
2013-11-03 13:42:00,57.0,36.0,30.19,SSE,155,0.0,3.0,46,0.00,,,0.03,,2013-11-03 18:42:00,
2013-11-03 13:52:00,56.0,35.0,30.19,South,187,4.0,4.0,45,0.00,,,0.03,,2013-11-03 18:52:00,
2013-11-03 14:11:00,57.0,35.0,30.18,SW,219,3.0,6.0,44,0.00,,,0.03,,2013-11-03 19:11:00,
2013-11-03 14:22:00,57.0,35.0,30.18,SW,219,3.0,6.0,44,0.00,,,0.03,,2013-11-03 19:22:00,
2013-11-03 14:42:00,58.0,36.0,30.17,SSW,196,1.0,1.0,44,0.00,,,0.02,,2013-11-03 19:42:00,
2013-11-03 14:53:00,57.0,34.0,30.17,SSE,161,0.0,3.0,42,0.00,,,0.02,,2013-11-03 19:53:00,
2013-11-03 15:22:00,58.0,34.0,30.16,South,189,0.0,3.0,41,0.00,,,0.02,,2013-11-03 20:22:00,
2013-11-03 15:42:00,58.0,33.0,30.17,SW,217,0.0,2.0,39,0.00,,,0.02,,2013-11-03 20:42:00,
2013-11-03 15:52:00,57.0,33.0,30.18,South,171,0.0,6.0,40,0.00,,,0.02,,2013-11-03 20:52:00,
2013-11-03 16:22:00,56.0,33.0,30.18,SSW,205,0.0,3.0,42,0.00,,,0.02,,2013-11-03 21:22:00,
2013-11-03 16:43:00,56.0,34.0,30.18,SW,217,0.0,0.0,44,0.00,,,0.02,,2013-11-03 21:43:00,
2013-11-03 16:54:00,55.0,35.0,30.18,WSW,248,0.0,0.0,46,0.00,,,0.02,,2013-11-03 21:54:00,
2013-11-03 17:12:00,54.0,37.0,30.18,WSW,248,0.0,0.0,53,0.00,,,0.02,,2013-11-03 22:12:00,
2013-11-03 17:22:00,54.0,37.0,30.18,WSW,248,0.0,0.0,53,0.00,,,0.02,,2013-11-03 22:22:00,
2013-11-03 17:43:00,53.0,39.0,30.18,WSW,248,0.0,0.0,60,0.00,,,0.02,,2013-11-03 22:43:00,
2013-11-03 17:52:00,52.0,39.0,30.19,WSW,248,0.0,0.0,62,0.00,,,0.02,,2013-11-03 22:52:00,
2013-11-03 18:23:00,50.0,38.0,30.20,WSW,248,0.0,0.0,62,0.00,,,0.01,,2013-11-03 23:23:00,
2013-11-03 18:42:00,49.0,37.0,30.22,WNW,301,0.0,0.0,62,0.00,,,0.01,,2013-11-03 23:42:00,
2013-11-03 18:53:00,49.0,37.0,30.22,WNW,301,0.0,0.0,62,0.00,,,0.00,,2013-11-03 23:53:00,
2013-11-03 19:11:00,50.0,37.0,30.23,NNW,329,0.0,0.0,61,0.00,,,0.00,,2013-11-04 00:11:00,
2013-11-03 19:22:00,50.0,37.0,30.23,NNW,329,0.0,0.0,61,0.00,,,0.00,,2013-11-04 00:22:00,
2013-11-03 19:32:00,50.0,37.0,30.23,NNW,329,0.0,0.0,61,0.00,,,0.00,,2013-11-04 00:32:00,
2013-11-03 19:42:00,50.0,37.0,30.23,NNW,329,0.0,0.0,61,0.00,,,0.00,,2013-11-04 00:42:00,
2013-11-03 19:52:00,47.0,38.0,30.24,NNW,329,0.0,0.0,71,0.00,,,0.00,,2013-11-04 00:52:00,
2013-11-03 20:22:00,47.0,38.0,30.25,NNW,329,0.0,0.0,71,0.00,,,0.00,,2013-11-04 01:22:00,
2013-11-03 20:32:00,47.0,38.0,30.25,NNW,329,0.0,0.0,71,0.00,,,0.00,,2013-11-04 01:32:00,
2013-11-03 20:52:00,46.0,38.0,30.26,NNW,328,0.0,0.0,73,0.00,,,0.00,,2013-11-04 01:52:00,
2013-11-03 21:12:00,46.0,37.0,30.26,NW,324,0.0,0.0,72,0.00,,,0.00,,2013-11-04 02:12:00,
2013-11-03 21:22:00,46.0,37.0,30.26,NW,324,0.0,0.0,72,0.00,,,0.00,,2013-11-04 02:22:00,
2013-11-03 21:42:00,45.0,37.0,30.26,NW,324,0.0,0.0,74,0.00,,,0.00,,2013-11-04 02:42:00,
2013-11-03 21:53:00,45.0,38.0,30.27,NW,324,0.0,0.0,75,0.00,,,0.00,,2013-11-04 02:53:00,
2013-11-03 22:22:00,45.0,37.0,30.28,NW,324,0.0,0.0,74,0.00,,,0.00,,2013-11-04 03:22:00,
2013-11-03 22:44:00,46.0,36.0,30.28,NW,324,0.0,0.0,68,0.00,,,0.00,,2013-11-04 03:44:00,
2013-11-03 22:54:00,47.0,38.0,30.29,NW,324,0.0,0.0,70,0.00,,,0.00,,2013-11-04 03:54:00,
2013-11-03 23:13:00,46.0,37.0,30.30,NW,324,0.0,0.0,70,0.00,,,0.00,,2013-11-04 04:13:00,
2013-11-03 23:24:00,46.0,37.0,30.30,NW,324,0.0,0.0,70,0.00,,,0.00,,2013-11-04 04:24:00,
2013-11-03 23:34:00,46.0,37.0,30.30,NW,324,0.0,0.0,70,0.00,,,0.00,,2013-11-04 04:34:00,
2013-11-03 23:53:00,45.0,37.0,30.32,WNW,297,0.0,0.0,74,0.00,,,0.00,,2013-11-04 04:53:00,